createdAt,value
2022-10-22T00:00:14.937Z,9.24
2022-10-22T00:00:22.540Z,9.11
2022-10-22T00:00:29.944Z,9.02
2022-10-22T00:00:37.334Z,9.14
2022-10-22T00:00:44.761Z,8.68
2022-10-22T00:00:53.040Z,8.84
2022-10-22T00:01:13.028Z,9.10
2022-10-22T00:01:22.259Z,9.17
2022-10-22T00:01:29.637Z,9.43
2022-10-22T00:01:38.276Z,9.40
2022-10-22T00:01:45.907Z,9.33
2022-10-22T00:01:54.490Z,9.47
2022-10-22T00:02:02.520Z,9.15
2022-10-22T00:02:22.480Z,9.01
2022-10-22T00:02:30.109Z,9.07
2022-10-22T00:02:37.923Z,9.18
2022-10-22T00:02:45.631Z,9.17
2022-10-22T00:02:53.392Z,9.17
2022-10-22T00:03:00.959Z,9.00
2022-10-22T00:03:20.708Z,9.40
2022-10-22T00:03:28.382Z,9.73
2022-10-22T00:03:35.723Z,9.97
2022-10-22T00:03:43.180Z,9.58
2022-10-22T00:04:03.178Z,8.94
2022-10-22T00:04:10.568Z,8.84
2022-10-22T00:04:17.964Z,9.28
2022-10-22T00:04:25.473Z,9.16
2022-10-22T00:04:35.405Z,8.90
2022-10-22T00:04:57.287Z,8.84
2022-10-22T00:05:05.696Z,8.96
2022-10-22T00:05:13.254Z,9.12
2022-10-22T00:05:32.968Z,9.15
2022-10-22T00:05:40.390Z,9.20
2022-10-22T00:05:48.411Z,9.37
2022-10-22T00:05:55.890Z,9.50
2022-10-22T00:06:03.345Z,9.34
2022-10-22T00:06:23.114Z,9.55
2022-10-22T00:06:30.532Z,9.63
2022-10-22T00:06:37.926Z,9.50
2022-10-22T00:06:45.440Z,9.37
2022-10-22T00:06:52.986Z,9.37
2022-10-22T00:07:12.934Z,9.14
2022-10-22T00:07:22.429Z,9.34
2022-10-22T00:07:30.023Z,9.64
2022-10-22T00:07:37.703Z,9.66
2022-10-22T00:07:45.395Z,9.58
2022-10-22T00:07:52.831Z,9.60
2022-10-22T00:08:12.501Z,9.65
2022-10-22T00:08:19.882Z,9.73
2022-10-22T00:08:27.527Z,9.87
2022-10-22T00:08:34.997Z,9.70
2022-10-22T00:08:42.528Z,9.62
2022-10-22T00:09:02.374Z,10.07
2022-10-22T00:09:09.892Z,10.43
2022-10-22T00:09:17.422Z,10.16
2022-10-22T00:09:24.928Z,10.07
2022-10-22T00:09:32.497Z,9.82
2022-10-22T00:09:52.318Z,9.85
2022-10-22T00:09:59.692Z,9.85
2022-10-22T00:10:07.835Z,9.57
2022-10-22T00:10:15.282Z,9.85
2022-10-22T00:10:22.754Z,9.88
2022-10-22T00:10:42.813Z,9.95
2022-10-22T00:10:50.271Z,9.47
2022-10-22T00:10:58.145Z,9.07
2022-10-22T00:11:10.319Z,9.00
2022-10-22T00:11:19.785Z,9.13
2022-10-22T00:11:27.395Z,9.54
2022-10-22T00:11:35.016Z,9.80
2022-10-22T00:11:43.470Z,9.94
2022-10-22T00:11:50.942Z,9.79
2022-10-22T00:12:11.594Z,10.05
2022-10-22T00:12:19.031Z,10.28
2022-10-22T00:12:27.318Z,10.18
2022-10-22T00:12:34.965Z,10.07
2022-10-22T00:12:42.431Z,9.63
2022-10-22T00:13:02.064Z,9.46
2022-10-22T00:13:10.250Z,9.60
2022-10-22T00:13:17.782Z,9.71
2022-10-22T00:13:25.730Z,9.90
2022-10-22T00:13:33.191Z,9.80
2022-10-22T00:13:41.503Z,9.67
2022-10-22T00:14:01.620Z,9.29
2022-10-22T00:14:09.259Z,9.38
2022-10-22T00:14:16.760Z,9.58
2022-10-22T00:14:24.146Z,9.90
2022-10-22T00:14:31.568Z,9.75
2022-10-22T00:14:51.553Z,9.61
2022-10-22T00:14:59.005Z,9.50
2022-10-22T00:15:07.441Z,9.54
2022-10-22T00:15:14.839Z,9.61
2022-10-22T00:15:22.435Z,9.66
2022-10-22T00:15:42.218Z,9.68
2022-10-22T00:15:49.676Z,9.78
2022-10-22T00:15:57.133Z,10.40
2022-10-22T00:16:05.033Z,10.50
2022-10-22T00:16:13.283Z,10.42
2022-10-22T00:16:33.026Z,9.50
2022-10-22T00:16:40.417Z,9.40
2022-10-22T00:16:47.836Z,9.67
2022-10-22T00:16:56.578Z,9.70
2022-10-22T00:17:06.908Z,10.13
2022-10-22T00:17:19.005Z,10.46
2022-10-22T00:17:26.485Z,10.73
2022-10-22T00:17:33.869Z,10.47
2022-10-22T00:17:41.763Z,10.50
2022-10-22T00:18:02.350Z,10.52
2022-10-22T00:18:09.738Z,10.45
2022-10-22T00:18:17.449Z,10.57
2022-10-22T00:18:24.823Z,10.52
2022-10-22T00:18:32.255Z,10.50
2022-10-22T00:18:41.114Z,10.40
2022-10-22T00:19:01.023Z,9.74
2022-10-22T00:19:09.504Z,9.43
2022-10-22T00:19:16.926Z,9.62
2022-10-22T00:19:24.426Z,9.87
2022-10-22T00:19:31.930Z,9.97
2022-10-22T00:19:52.482Z,10.01
2022-10-22T00:20:02.704Z,10.32
2022-10-22T00:20:10.500Z,10.15
2022-10-22T00:20:17.885Z,10.20
2022-10-22T00:20:25.280Z,10.17
2022-10-22T00:20:32.800Z,10.02
2022-10-22T00:20:52.747Z,10.23
2022-10-22T00:21:00.242Z,10.33
2022-10-22T00:21:08.239Z,10.17
2022-10-22T00:21:15.913Z,10.05
2022-10-22T00:21:23.469Z,9.93
2022-10-22T00:21:31.070Z,9.40
2022-10-22T00:21:50.943Z,9.13
2022-10-22T00:21:58.581Z,9.28
2022-10-22T00:22:06.181Z,9.60
2022-10-22T00:22:13.643Z,9.60
2022-10-22T00:22:21.279Z,9.62
2022-10-22T00:22:41.028Z,9.63
2022-10-22T00:22:49.018Z,9.90
2022-10-22T00:22:56.539Z,10.18
2022-10-22T00:23:04.030Z,10.50
2022-10-22T00:23:11.488Z,10.38
2022-10-22T00:23:31.183Z,9.88
2022-10-22T00:23:45.704Z,9.67
2022-10-22T00:23:53.147Z,9.85
2022-10-22T00:24:00.735Z,9.60
2022-10-22T00:24:08.276Z,9.62
2022-10-22T00:24:15.909Z,9.55
2022-10-22T00:24:23.323Z,9.85
2022-10-22T00:24:43.224Z,10.34
2022-10-22T00:24:50.602Z,10.55
2022-10-22T00:24:57.995Z,10.57
2022-10-22T00:25:05.645Z,10.55
2022-10-22T00:25:13.036Z,10.27
2022-10-22T00:25:35.899Z,10.38
2022-10-22T00:25:43.291Z,10.12
2022-10-22T00:25:50.655Z,9.74
2022-10-22T00:25:58.267Z,9.72
2022-10-22T00:26:05.812Z,9.47
2022-10-22T00:26:13.246Z,9.44
2022-10-22T00:26:32.974Z,9.70
2022-10-22T00:26:40.653Z,9.92
2022-10-22T00:26:48.698Z,9.97
2022-10-22T00:26:58.706Z,9.82
2022-10-22T00:27:08.480Z,9.91
2022-10-22T00:27:16.019Z,9.59
2022-10-22T00:27:23.427Z,9.37
2022-10-22T00:27:30.890Z,9.26
2022-10-22T00:27:50.537Z,9.61
2022-10-22T00:27:57.888Z,9.80
2022-10-22T00:28:05.534Z,10.10
2022-10-22T00:28:12.920Z,10.06
2022-10-22T00:28:32.895Z,9.91
2022-10-22T00:28:40.632Z,9.62
2022-10-22T00:28:47.979Z,9.77
2022-10-22T00:28:55.390Z,9.83
2022-10-22T00:29:02.791Z,9.67
2022-10-22T00:29:22.641Z,9.13
2022-10-22T00:29:30.455Z,8.94
2022-10-22T00:29:38.065Z,9.20
2022-10-22T00:29:45.582Z,9.40
2022-10-22T00:29:53.048Z,9.17
2022-10-22T00:30:13.070Z,8.74
2022-10-22T00:30:20.616Z,8.87
2022-10-22T00:30:28.249Z,9.07
2022-10-22T00:30:35.629Z,9.23
2022-10-22T00:30:43.023Z,9.60
2022-10-22T00:30:57.212Z,9.37
2022-10-22T00:31:05.259Z,9.43
2022-10-22T00:31:12.973Z,9.33
2022-10-22T00:31:32.794Z,8.98
2022-10-22T00:31:40.250Z,8.77
2022-10-22T00:31:50.160Z,8.80
2022-10-22T00:31:57.631Z,8.98
2022-10-22T00:32:06.663Z,9.17
2022-10-22T00:32:14.206Z,8.93
2022-10-22T00:32:21.598Z,9.05
2022-10-22T00:32:41.550Z,8.89
2022-10-22T00:32:49.160Z,9.02
2022-10-22T00:32:56.586Z,8.90
2022-10-22T00:33:04.082Z,9.20
2022-10-22T00:33:11.480Z,9.32
2022-10-22T00:33:31.769Z,8.73
2022-10-22T00:33:39.216Z,8.46
2022-10-22T00:33:48.291Z,8.47
2022-10-22T00:33:55.726Z,8.57
2022-10-22T00:34:03.453Z,8.77
2022-10-22T00:34:10.856Z,8.67
2022-10-22T00:34:21.369Z,8.55
2022-10-22T00:34:41.310Z,8.70
2022-10-22T00:34:48.729Z,8.74
2022-10-22T00:34:56.127Z,8.40
2022-10-22T00:35:04.508Z,8.20
2022-10-22T00:35:11.945Z,8.37
2022-10-22T00:35:21.870Z,8.42
2022-10-22T00:35:41.685Z,8.54
2022-10-22T00:35:49.094Z,8.38
2022-10-22T00:35:56.869Z,8.32
2022-10-22T00:36:04.701Z,8.42
2022-10-22T00:36:12.779Z,8.63
2022-10-22T00:36:32.532Z,8.71
2022-10-22T00:36:39.975Z,8.64
2022-10-22T00:36:51.466Z,8.57
2022-10-22T00:36:58.934Z,8.53
2022-10-22T00:37:06.387Z,8.50
2022-10-22T00:37:13.839Z,8.64
2022-10-22T00:37:21.225Z,8.43
2022-10-22T00:37:40.984Z,8.61
2022-10-22T00:37:48.518Z,8.67
2022-10-22T00:37:56.051Z,8.90
2022-10-22T00:38:03.648Z,8.78
2022-10-22T00:38:11.056Z,8.87
2022-10-22T00:38:30.920Z,9.19
2022-10-22T00:38:38.354Z,9.27
2022-10-22T00:38:45.698Z,9.33
2022-10-22T00:38:53.358Z,8.83
2022-10-22T00:39:16.379Z,8.05
2022-10-22T00:39:25.622Z,8.20
2022-10-22T00:39:33.106Z,8.50
2022-10-22T00:39:40.632Z,8.74
2022-10-22T00:39:48.146Z,8.52
2022-10-22T00:39:55.526Z,8.44
2022-10-22T00:40:03.855Z,8.36
2022-10-22T00:40:12.121Z,8.29
2022-10-22T00:40:32.219Z,8.50
2022-10-22T00:40:39.637Z,8.72
2022-10-22T00:40:47.399Z,9.02
2022-10-22T00:40:55.207Z,8.98
2022-10-22T00:41:02.765Z,8.97
2022-10-22T00:41:13.855Z,8.87
2022-10-22T00:41:21.334Z,8.82
2022-10-22T00:41:41.061Z,8.63
2022-10-22T00:41:51.009Z,8.50
2022-10-22T00:41:59.140Z,8.23
2022-10-22T00:42:06.639Z,8.17
2022-10-22T00:42:20.278Z,7.88
2022-10-22T00:42:30.554Z,7.84
2022-10-22T00:42:38.398Z,7.89
2022-10-22T00:42:46.098Z,8.53
2022-10-22T00:42:54.292Z,8.80
2022-10-22T00:43:06.174Z,9.23
2022-10-22T00:43:15.323Z,9.15
2022-10-22T00:43:22.808Z,8.83
2022-10-22T00:44:03.494Z,8.05
2022-10-22T00:44:48.410Z,8.10
2022-10-22T00:45:05.016Z,8.32
2022-10-22T00:45:24.070Z,8.13
2022-10-22T00:45:31.739Z,8.20
2022-10-22T00:45:39.449Z,8.35
2022-10-22T00:45:47.111Z,8.47
2022-10-22T00:45:54.870Z,8.28
2022-10-22T00:46:02.397Z,8.70
2022-10-22T00:46:09.821Z,8.80
2022-10-22T00:46:17.234Z,8.72
2022-10-22T00:46:24.847Z,8.87
2022-10-22T00:46:32.445Z,8.60
2022-10-22T00:46:39.918Z,8.23
2022-10-22T00:46:47.291Z,8.20
2022-10-22T00:46:54.789Z,8.04
2022-10-22T00:47:02.183Z,8.03
2022-10-22T00:47:09.606Z,8.00
2022-10-22T00:47:19.134Z,8.02
2022-10-22T00:47:32.316Z,8.09
2022-10-22T00:47:47.076Z,8.04
2022-10-22T00:48:05.532Z,8.09
2022-10-22T00:48:22.272Z,8.02
2022-10-22T00:48:33.692Z,7.89
2022-10-22T00:48:41.251Z,7.59
2022-10-22T00:48:48.767Z,7.43
2022-10-22T00:48:59.432Z,7.47
2022-10-22T00:49:07.057Z,7.72
2022-10-22T00:49:14.466Z,7.90
2022-10-22T00:49:21.943Z,8.20
2022-10-22T00:49:30.265Z,8.28
2022-10-22T00:49:37.736Z,8.03
2022-10-22T00:49:46.907Z,8.13
2022-10-22T00:49:56.045Z,8.09
2022-10-22T00:50:06.590Z,8.11
2022-10-22T00:50:31.981Z,8.19
2022-10-22T00:50:56.818Z,7.61
2022-10-22T00:51:08.235Z,7.75
2022-10-22T00:51:16.065Z,7.94
2022-10-22T00:51:27.529Z,7.44
2022-10-22T00:51:36.543Z,7.50
2022-10-22T00:51:44.012Z,7.36
2022-10-22T00:51:51.475Z,7.46
2022-10-22T00:51:58.997Z,7.72
2022-10-22T00:52:06.824Z,7.70
2022-10-22T00:52:14.855Z,8.07
2022-10-22T00:52:22.987Z,8.13
2022-10-22T00:52:30.495Z,8.23
2022-10-22T00:52:38.411Z,8.35
2022-10-22T00:52:46.874Z,8.35
2022-10-22T00:52:55.595Z,8.33
2022-10-22T00:53:04.961Z,8.50
2022-10-22T00:53:19.463Z,8.73
2022-10-22T00:53:31.951Z,8.84
2022-10-22T00:53:45.589Z,8.70
2022-10-22T00:54:00.359Z,8.69
2022-10-22T00:54:10.040Z,8.85
2022-10-22T00:54:17.502Z,8.70
2022-10-22T00:54:24.951Z,8.53
2022-10-22T00:54:32.439Z,8.58
2022-10-22T00:54:41.552Z,8.77
2022-10-22T00:54:50.277Z,8.73
2022-10-22T00:54:58.433Z,8.77
2022-10-22T00:55:06.495Z,8.51
2022-10-22T00:55:15.204Z,8.63
2022-10-22T00:55:24.400Z,8.80
2022-10-22T00:55:33.712Z,8.67
2022-10-22T00:55:43.310Z,8.26
2022-10-22T00:55:54.507Z,7.57
2022-10-22T00:56:02.696Z,7.40
2022-10-22T00:56:10.882Z,7.43
2022-10-22T00:56:18.697Z,8.00
2022-10-22T00:56:26.654Z,8.48
2022-10-22T00:56:34.283Z,8.88
2022-10-22T00:56:41.730Z,9.20
2022-10-22T00:56:49.752Z,8.84
2022-10-22T00:56:57.284Z,8.57
2022-10-22T00:57:04.917Z,9.53
2022-10-22T00:57:12.468Z,11.34
2022-10-22T00:57:21.096Z,14.78
2022-10-22T00:57:28.762Z,17.85
2022-10-22T00:57:49.937Z,15.38
2022-10-22T00:57:58.711Z,11.37
2022-10-22T00:58:06.423Z,10.86
2022-10-22T00:58:14.435Z,10.23
2022-10-22T00:58:25.802Z,9.00
2022-10-22T00:58:39.847Z,8.72
2022-10-22T00:58:52.763Z,7.88
2022-10-22T00:59:02.777Z,8.05
2022-10-22T00:59:12.300Z,8.40
2022-10-22T00:59:19.850Z,8.13
2022-10-22T00:59:28.750Z,7.86
2022-10-22T00:59:37.726Z,7.93
2022-10-22T00:59:45.467Z,7.70
2022-10-22T00:59:53.016Z,7.63
2022-10-22T01:00:00.636Z,7.33
2022-10-22T01:00:09.243Z,7.43
2022-10-22T01:00:30.254Z,7.35
2022-10-22T01:00:37.832Z,7.10
2022-10-22T01:00:45.639Z,6.90
2022-10-22T01:00:53.279Z,6.95
2022-10-22T01:01:01.056Z,7.17
2022-10-22T01:01:12.755Z,7.20
2022-10-22T01:01:25.772Z,7.50
2022-10-22T01:01:33.291Z,7.41
2022-10-22T01:01:40.853Z,7.68
2022-10-22T01:01:48.250Z,7.63
2022-10-22T01:02:07.961Z,7.61
2022-10-22T01:02:15.892Z,7.50
2022-10-22T01:02:23.427Z,7.77
2022-10-22T01:02:31.069Z,7.63
2022-10-22T01:02:38.820Z,7.40
2022-10-22T01:03:00.233Z,7.20
2022-10-22T01:03:08.396Z,7.37
2022-10-22T01:03:16.155Z,7.28
2022-10-22T01:03:24.162Z,7.40
2022-10-22T01:03:32.959Z,7.23
2022-10-22T01:03:40.396Z,7.27
2022-10-22T01:03:48.597Z,7.37
2022-10-22T01:04:08.933Z,7.85
2022-10-22T01:04:17.312Z,7.86
2022-10-22T01:04:24.846Z,7.57
2022-10-22T01:04:32.461Z,7.56
2022-10-22T01:04:41.360Z,7.37
2022-10-22T01:04:48.895Z,7.54
2022-10-22T01:05:09.091Z,7.71
2022-10-22T01:05:17.176Z,7.60
2022-10-22T01:05:31.754Z,7.63
2022-10-22T01:05:45.579Z,7.56
2022-10-22T01:06:16.002Z,7.38
2022-10-22T01:06:34.536Z,7.20
2022-10-22T01:06:42.254Z,7.11
2022-10-22T01:06:50.027Z,7.48
2022-10-22T01:06:57.536Z,8.02
2022-10-22T01:07:05.217Z,8.40
2022-10-22T01:07:21.757Z,8.40
2022-10-22T01:07:29.555Z,7.61
2022-10-22T01:07:43.384Z,7.37
2022-10-22T01:07:53.528Z,7.46
2022-10-22T01:08:01.033Z,7.61
2022-10-22T01:08:18.643Z,7.50
2022-10-22T01:08:49.363Z,7.40
2022-10-22T01:09:26.857Z,7.31
2022-10-22T01:09:47.243Z,7.93
2022-10-22T01:10:08.280Z,8.26
2022-10-22T01:10:33.082Z,8.29
2022-10-22T01:11:03.608Z,7.86
2022-10-22T01:11:25.765Z,7.69
2022-10-22T01:11:42.076Z,7.94
2022-10-22T01:12:04.462Z,8.09
2022-10-22T01:12:17.892Z,7.88
2022-10-22T01:12:40.175Z,7.76
2022-10-22T01:13:06.596Z,7.49
2022-10-22T01:13:14.041Z,7.36
2022-10-22T01:13:50.084Z,7.50
2022-10-22T01:14:19.847Z,7.69
2022-10-22T01:15:05.620Z,7.85
2022-10-22T01:16:00.663Z,7.76
2022-10-22T01:16:21.097Z,7.65
2022-10-22T01:16:35.176Z,7.94
2022-10-22T01:17:34.525Z,7.82
2022-10-22T01:17:42.184Z,7.91
2022-10-22T01:17:56.199Z,7.70
2022-10-22T01:18:13.620Z,7.78
2022-10-22T01:18:30.125Z,7.71
2022-10-22T01:18:43.579Z,7.45
2022-10-22T01:18:57.180Z,7.45
2022-10-22T01:19:35.299Z,7.69
2022-10-22T01:20:20.136Z,7.63
2022-10-22T01:20:58.591Z,7.32
2022-10-22T01:21:15.643Z,7.57
2022-10-22T01:21:45.800Z,7.66
2022-10-22T01:21:59.681Z,7.75
2022-10-22T01:22:15.554Z,7.63
2022-10-22T01:22:50.057Z,7.25
2022-10-22T01:23:03.562Z,7.32
2022-10-22T01:23:29.138Z,7.47
2022-10-22T01:24:07.181Z,7.68
2022-10-22T01:24:41.747Z,7.80
2022-10-22T01:24:55.305Z,7.96
2022-10-22T01:25:48.535Z,8.41
2022-10-22T01:26:58.521Z,8.30
2022-10-22T01:27:47.728Z,8.07
2022-10-22T01:28:22.532Z,7.71
2022-10-22T01:28:47.494Z,7.94
2022-10-22T01:29:34.178Z,7.68
2022-10-22T01:29:48.381Z,7.49
2022-10-22T01:30:02.377Z,7.35
2022-10-22T01:30:13.813Z,7.54
2022-10-22T01:30:21.842Z,7.68
2022-10-22T01:30:29.647Z,7.72
2022-10-22T01:30:38.754Z,7.50
2022-10-22T01:30:49.777Z,7.77
2022-10-22T01:31:00.403Z,7.79
2022-10-22T01:31:11.425Z,8.09
2022-10-22T01:31:22.183Z,8.09
2022-10-22T01:31:51.074Z,7.97
2022-10-22T01:32:07.197Z,7.66
2022-10-22T01:32:24.461Z,7.80
2022-10-22T01:32:37.152Z,7.86
2022-10-22T01:32:54.043Z,7.96
2022-10-22T01:33:07.205Z,8.01
2022-10-22T01:33:18.714Z,8.27
2022-10-22T01:33:26.990Z,8.39
2022-10-22T01:33:34.785Z,8.27
2022-10-22T01:33:44.562Z,8.23
2022-10-22T01:33:55.114Z,8.31
2022-10-22T01:34:04.672Z,8.43
2022-10-22T01:34:16.970Z,8.39
2022-10-22T01:34:26.136Z,8.21
2022-10-22T01:34:34.826Z,8.24
2022-10-22T01:34:45.121Z,8.17
2022-10-22T01:35:02.166Z,8.55
2022-10-22T01:35:13.064Z,8.38
2022-10-22T01:35:27.618Z,8.33
2022-10-22T01:35:39.417Z,8.36
2022-10-22T01:35:47.063Z,8.56
2022-10-22T01:35:55.368Z,8.47
2022-10-22T01:36:04.806Z,8.60
2022-10-22T01:36:14.742Z,8.50
2022-10-22T01:36:22.854Z,8.59
2022-10-22T01:36:32.645Z,8.60
2022-10-22T01:36:41.915Z,8.68
2022-10-22T01:36:51.965Z,8.46
2022-10-22T01:37:00.296Z,8.34
2022-10-22T01:37:08.898Z,8.10
2022-10-22T01:37:19.162Z,8.13
2022-10-22T01:37:30.948Z,8.29
2022-10-22T01:37:48.911Z,8.24
2022-10-22T01:38:04.086Z,8.45
2022-10-22T01:38:19.783Z,8.24
2022-10-22T01:38:27.950Z,7.94
2022-10-22T01:38:35.775Z,8.23
2022-10-22T01:38:45.406Z,8.33
2022-10-22T01:38:53.787Z,8.53
2022-10-22T01:39:02.908Z,8.53
2022-10-22T01:39:11.498Z,8.46
2022-10-22T01:39:20.810Z,8.31
2022-10-22T01:39:29.774Z,8.30
2022-10-22T01:39:38.903Z,8.33
2022-10-22T01:39:48.064Z,8.00
2022-10-22T01:39:58.073Z,8.10
2022-10-22T01:40:07.813Z,8.27
2022-10-22T01:40:16.844Z,8.50
2022-10-22T01:40:25.307Z,8.59
2022-10-22T01:40:33.733Z,8.19
2022-10-22T01:40:43.194Z,8.17
2022-10-22T01:40:52.286Z,7.99
2022-10-22T01:41:00.675Z,7.90
2022-10-22T01:41:08.923Z,7.68
2022-10-22T01:41:16.840Z,7.35
2022-10-22T01:41:24.413Z,7.23
2022-10-22T01:41:31.845Z,7.28
2022-10-22T01:41:43.668Z,7.54
2022-10-22T01:41:51.084Z,7.80
2022-10-22T01:41:59.630Z,7.96
2022-10-22T01:42:07.038Z,8.01
2022-10-22T01:42:15.349Z,8.00
2022-10-22T01:42:23.908Z,7.93
2022-10-22T01:42:31.355Z,7.70
2022-10-22T01:42:38.726Z,7.67
2022-10-22T01:43:03.850Z,7.72
2022-10-22T01:43:12.264Z,7.51
2022-10-22T01:43:20.007Z,6.90
2022-10-22T01:43:27.474Z,7.30
2022-10-22T01:43:34.930Z,7.60
2022-10-22T01:43:42.281Z,7.74
2022-10-22T01:43:49.824Z,8.10
2022-10-22T01:43:57.317Z,7.98
2022-10-22T01:44:04.877Z,7.83
2022-10-22T01:44:31.321Z,7.62
2022-10-22T01:44:38.931Z,7.60
2022-10-22T01:44:49.008Z,8.00
2022-10-22T01:44:56.548Z,8.07
2022-10-22T01:45:12.617Z,7.80
2022-10-22T01:45:20.112Z,7.97
2022-10-22T01:45:30.549Z,8.47
2022-10-22T01:45:56.602Z,8.48
2022-10-22T01:46:06.537Z,7.91
2022-10-22T01:46:14.549Z,7.22
2022-10-22T01:46:26.023Z,7.40
2022-10-22T01:46:33.706Z,7.70
2022-10-22T01:46:41.242Z,8.28
2022-10-22T01:46:51.675Z,8.25
2022-10-22T01:47:27.469Z,8.30
2022-10-22T01:47:58.983Z,7.96
2022-10-22T01:48:24.231Z,7.85
2022-10-22T01:48:56.535Z,7.75
2022-10-22T01:49:07.067Z,7.88
2022-10-22T01:49:32.329Z,7.94
2022-10-22T01:49:51.459Z,7.90
2022-10-22T01:50:20.698Z,7.75
2022-10-22T01:50:46.094Z,7.94
2022-10-22T01:51:31.715Z,7.88
2022-10-22T01:51:49.493Z,7.54
2022-10-22T01:52:12.703Z,7.31
2022-10-22T01:52:28.315Z,7.31
2022-10-22T01:52:46.096Z,7.18
2022-10-22T01:53:05.825Z,7.24
2022-10-22T01:53:21.868Z,7.04
2022-10-22T01:53:39.894Z,7.26
2022-10-22T01:53:53.227Z,7.63
2022-10-22T01:54:27.781Z,7.72
2022-10-22T01:54:35.241Z,7.50
2022-10-22T01:54:48.309Z,7.17
2022-10-22T01:55:22.402Z,7.14
2022-10-22T01:55:35.373Z,7.18
2022-10-22T01:56:19.445Z,7.45
2022-10-22T01:56:58.552Z,6.88
2022-10-22T01:57:28.614Z,6.53
2022-10-22T01:58:16.611Z,6.53
2022-10-22T01:58:35.070Z,6.45
2022-10-22T01:59:01.468Z,6.22
2022-10-22T01:59:32.066Z,6.29
2022-10-22T01:59:49.468Z,6.22
2022-10-22T02:00:10.970Z,6.25
2022-10-22T02:00:20.364Z,6.47
2022-10-22T02:00:28.209Z,6.33
2022-10-22T02:00:40.098Z,6.07
2022-10-22T02:00:57.535Z,5.90
2022-10-22T02:01:26.602Z,6.01
2022-10-22T02:02:15.385Z,6.51
2022-10-22T02:02:37.663Z,6.47
2022-10-22T02:02:53.678Z,6.24
2022-10-22T02:03:13.281Z,6.19
2022-10-22T02:03:30.431Z,5.96
2022-10-22T02:04:15.999Z,6.07
2022-10-22T02:04:36.039Z,6.04
2022-10-22T02:04:43.393Z,6.10
2022-10-22T02:04:57.495Z,6.14
2022-10-22T02:05:22.762Z,6.14
2022-10-22T02:05:30.084Z,6.04
2022-10-22T02:05:51.491Z,5.92
2022-10-22T02:06:05.143Z,6.10
2022-10-22T02:06:19.295Z,6.45
2022-10-22T02:06:29.862Z,6.30
2022-10-22T02:06:41.157Z,6.37
2022-10-22T02:06:52.137Z,6.32
2022-10-22T02:07:04.952Z,6.19
2022-10-22T02:07:17.655Z,6.05
2022-10-22T02:07:30.193Z,6.28
2022-10-22T02:07:46.431Z,6.05
2022-10-22T02:08:03.181Z,5.88
2022-10-22T02:08:14.132Z,5.90
2022-10-22T02:08:25.149Z,6.04
2022-10-22T02:08:34.644Z,6.20
2022-10-22T02:08:42.981Z,6.22
2022-10-22T02:08:51.778Z,6.20
2022-10-22T02:09:00.680Z,6.17
2022-10-22T02:09:09.730Z,6.00
2022-10-22T02:09:20.678Z,6.10
2022-10-22T02:09:30.871Z,6.10
2022-10-22T02:09:39.793Z,6.13
2022-10-22T02:09:48.162Z,6.03
2022-10-22T02:09:57.607Z,6.10
2022-10-22T02:10:07.769Z,5.91
2022-10-22T02:10:17.749Z,5.90
2022-10-22T02:10:26.350Z,5.90
2022-10-22T02:10:37.348Z,6.13
2022-10-22T02:10:48.320Z,6.31
2022-10-22T02:10:57.754Z,6.42
2022-10-22T02:11:05.911Z,6.20
2022-10-22T02:11:15.545Z,6.07
2022-10-22T02:11:23.165Z,5.91
2022-10-22T02:11:30.795Z,6.07
2022-10-22T02:11:38.959Z,6.20
2022-10-22T02:11:47.914Z,6.32
2022-10-22T02:11:57.529Z,6.53
2022-10-22T02:12:08.153Z,6.38
2022-10-22T02:12:18.074Z,6.28
2022-10-22T02:12:28.395Z,6.27
2022-10-22T02:12:36.860Z,6.20
2022-10-22T02:12:48.938Z,6.17
2022-10-22T02:12:57.816Z,6.01
2022-10-22T02:13:08.588Z,6.03
2022-10-22T02:13:25.117Z,6.20
2022-10-22T02:13:37.791Z,6.16
2022-10-22T02:13:53.409Z,5.97
2022-10-22T02:14:03.847Z,5.94
2022-10-22T02:14:13.371Z,6.10
2022-10-22T02:14:21.996Z,6.06
2022-10-22T02:14:30.545Z,6.03
2022-10-22T02:14:41.542Z,6.03
2022-10-22T02:14:51.017Z,6.03
2022-10-22T02:15:01.004Z,5.97
2022-10-22T02:15:10.952Z,5.97
2022-10-22T02:15:20.809Z,6.21
2022-10-22T02:15:30.605Z,6.11
2022-10-22T02:15:40.336Z,6.00
2022-10-22T02:15:51.949Z,5.96
2022-10-22T02:16:00.426Z,6.00
2022-10-22T02:16:10.038Z,6.10
2022-10-22T02:16:43.729Z,6.04
2022-10-22T02:16:51.422Z,6.13
2022-10-22T02:16:59.944Z,6.00
2022-10-22T02:17:11.893Z,5.93
2022-10-22T02:17:22.401Z,6.38
2022-10-22T02:17:33.937Z,6.62
2022-10-22T02:17:45.190Z,6.69
2022-10-22T02:17:53.981Z,6.18
2022-10-22T02:18:02.036Z,6.29
2022-10-22T02:18:10.846Z,6.03
2022-10-22T02:18:22.591Z,6.09
2022-10-22T02:18:36.291Z,6.06
2022-10-22T02:18:49.707Z,6.19
2022-10-22T02:19:01.589Z,6.39
2022-10-22T02:19:48.742Z,6.55
2022-10-22T02:20:13.707Z,6.35
2022-10-22T02:20:26.548Z,6.79
2022-10-22T02:20:36.451Z,7.03
2022-10-22T02:20:43.889Z,7.13
2022-10-22T02:20:51.617Z,6.53
2022-10-22T02:21:00.454Z,6.63
2022-10-22T02:21:20.662Z,6.40
2022-10-22T02:21:28.703Z,6.67
2022-10-22T02:21:36.256Z,6.80
2022-10-22T02:21:44.592Z,6.92
2022-10-22T02:21:53.035Z,6.63
2022-10-22T02:22:00.780Z,6.63
2022-10-22T02:22:08.526Z,6.67
2022-10-22T02:22:16.377Z,6.83
2022-10-22T02:22:25.309Z,7.18
2022-10-22T02:22:33.374Z,7.14
2022-10-22T02:22:41.956Z,6.80
2022-10-22T02:22:50.090Z,6.63
2022-10-22T02:22:58.548Z,6.52
2022-10-22T02:23:06.404Z,6.53
2022-10-22T02:23:14.386Z,6.70
2022-10-22T02:23:22.359Z,6.43
2022-10-22T02:23:29.792Z,6.30
2022-10-22T02:23:37.516Z,6.20
2022-10-22T02:23:45.297Z,6.23
2022-10-22T02:23:52.779Z,6.20
2022-10-22T02:24:00.126Z,6.20
2022-10-22T02:24:08.298Z,6.03
2022-10-22T02:24:16.742Z,6.03
2022-10-22T02:24:38.123Z,6.61
2022-10-22T02:24:45.865Z,6.64
2022-10-22T02:24:54.724Z,6.39
2022-10-22T02:25:02.369Z,6.30
2022-10-22T02:25:10.805Z,6.17
2022-10-22T02:25:18.505Z,6.15
2022-10-22T02:25:30.927Z,6.20
2022-10-22T02:25:42.755Z,6.05
2022-10-22T02:25:56.262Z,6.06
2022-10-22T02:26:23.999Z,6.36
2022-10-22T02:26:45.210Z,6.57
2022-10-22T02:27:01.864Z,6.61
2022-10-22T02:27:09.213Z,6.81
2022-10-22T02:27:33.279Z,6.53
2022-10-22T02:28:00.838Z,6.25
2022-10-22T02:28:25.725Z,6.34
2022-10-22T02:28:50.265Z,6.32
2022-10-22T02:29:15.603Z,6.26
2022-10-22T02:29:35.584Z,6.22
2022-10-22T02:30:07.870Z,6.44
2022-10-22T02:30:21.596Z,6.55
2022-10-22T02:30:31.082Z,6.59
2022-10-22T02:30:40.522Z,6.45
2022-10-22T02:30:55.027Z,6.50
2022-10-22T02:31:11.041Z,6.46
2022-10-22T02:31:24.548Z,6.71
2022-10-22T02:31:36.735Z,6.66
2022-10-22T02:31:46.528Z,6.71
2022-10-22T02:31:58.083Z,6.51
2022-10-22T02:32:09.377Z,6.47
2022-10-22T02:32:20.470Z,6.44
2022-10-22T02:32:34.670Z,6.48
2022-10-22T02:32:58.208Z,6.38
2022-10-22T02:33:12.281Z,6.13
2022-10-22T02:33:27.630Z,6.36
2022-10-22T02:33:41.974Z,6.40
2022-10-22T02:33:54.047Z,6.66
2022-10-22T02:34:08.909Z,6.75
2022-10-22T02:34:24.793Z,6.65
2022-10-22T02:34:33.017Z,6.24
2022-10-22T02:34:41.440Z,5.99
2022-10-22T02:34:50.298Z,6.02
2022-10-22T02:34:59.429Z,6.03
2022-10-22T02:35:09.900Z,6.10
2022-10-22T02:35:21.522Z,6.36
2022-10-22T02:35:30.389Z,6.70
2022-10-22T02:35:41.061Z,6.73
2022-10-22T02:35:49.960Z,6.61
2022-10-22T02:35:59.787Z,6.63
2022-10-22T02:36:08.416Z,6.70
2022-10-22T02:36:18.174Z,6.96
2022-10-22T02:36:26.395Z,6.96
2022-10-22T02:36:34.153Z,6.67
2022-10-22T02:36:46.712Z,6.30
2022-10-22T02:36:58.861Z,6.00
2022-10-22T02:37:07.456Z,6.07
2022-10-22T02:37:16.512Z,6.10
2022-10-22T02:37:26.332Z,6.07
2022-10-22T02:37:34.265Z,6.04
2022-10-22T02:37:42.906Z,6.20
2022-10-22T02:37:51.739Z,5.91
2022-10-22T02:38:00.355Z,6.02
2022-10-22T02:38:08.933Z,5.87
2022-10-22T02:38:17.866Z,6.07
2022-10-22T02:38:27.183Z,6.33
2022-10-22T02:38:36.364Z,6.35
2022-10-22T02:38:46.117Z,6.56
2022-10-22T02:38:54.260Z,6.63
2022-10-22T02:39:03.032Z,6.63
2022-10-22T02:39:11.593Z,6.60
2022-10-22T02:39:21.355Z,6.00
2022-10-22T02:39:30.406Z,6.07
2022-10-22T02:39:38.899Z,6.09
2022-10-22T02:39:46.974Z,6.17
2022-10-22T02:39:56.531Z,5.97
2022-10-22T02:40:04.843Z,6.10
2022-10-22T02:40:13.091Z,6.14
2022-10-22T02:40:21.463Z,6.20
2022-10-22T02:40:30.937Z,6.17
2022-10-22T02:40:38.835Z,5.89
2022-10-22T02:40:47.163Z,5.93
2022-10-22T02:40:54.972Z,5.82
2022-10-22T02:41:03.196Z,5.87
2022-10-22T02:41:11.174Z,5.88
2022-10-22T02:41:19.896Z,6.08
2022-10-22T02:41:28.053Z,6.36
2022-10-22T02:41:36.904Z,6.42
2022-10-22T02:41:44.642Z,6.40
2022-10-22T02:42:08.865Z,6.25
2022-10-22T02:42:16.554Z,6.45
2022-10-22T02:42:26.636Z,6.40
2022-10-22T02:42:36.656Z,6.49
2022-10-22T02:42:47.197Z,6.20
2022-10-22T02:42:54.788Z,6.20
2022-10-22T02:43:05.692Z,6.10
2022-10-22T02:43:13.152Z,6.22
2022-10-22T02:43:20.595Z,6.23
2022-10-22T02:43:29.715Z,6.27
2022-10-22T02:43:43.224Z,6.19
2022-10-22T02:43:54.357Z,6.16
2022-10-22T02:44:03.241Z,6.44